createdAt,value
2022-09-20T00:01:57.673Z,17.40
2022-09-20T00:04:26.998Z,17.30
2022-09-20T00:06:54.121Z,17.30
2022-09-20T00:09:21.230Z,17.40
2022-09-20T00:11:48.521Z,17.30
2022-09-20T00:14:15.693Z,17.30
2022-09-20T00:16:43.063Z,17.30
2022-09-20T00:19:16.328Z,17.40
2022-09-20T00:21:43.385Z,17.50
2022-09-20T00:24:10.729Z,17.60
2022-09-20T00:26:38.340Z,17.60
2022-09-20T00:29:05.435Z,17.70
2022-09-20T00:31:32.596Z,17.80
2022-09-20T00:34:18.375Z,17.80
2022-09-20T00:36:45.457Z,17.80
2022-09-20T00:39:13.832Z,17.70
2022-09-20T00:41:43.081Z,17.80
2022-09-20T00:44:28.932Z,17.90
2022-09-20T00:46:56.180Z,17.90
2022-09-20T00:49:26.534Z,17.90
2022-09-20T00:51:59.960Z,17.90
2022-09-20T00:54:27.271Z,18.00
2022-09-20T00:56:54.372Z,17.90
2022-09-20T00:59:33.158Z,17.90
2022-09-20T01:02:11.423Z,17.90
2022-09-20T01:04:40.332Z,17.90
2022-09-20T01:07:13.733Z,17.90
2022-09-20T01:09:43.243Z,18.00
2022-09-20T01:12:13.614Z,18.00
2022-09-20T01:14:42.026Z,18.10
2022-09-20T01:17:11.561Z,18.20
2022-09-20T01:19:42.288Z,18.20
2022-09-20T01:22:14.833Z,18.30
2022-09-20T01:24:50.716Z,18.30
2022-09-20T01:27:17.745Z,18.40
2022-09-20T01:29:51.028Z,18.50
2022-09-20T01:32:24.492Z,18.50
2022-09-20T01:35:04.187Z,18.50
2022-09-20T01:37:47.216Z,18.40
2022-09-20T01:40:34.878Z,18.50
2022-09-20T01:43:17.386Z,18.40
2022-09-20T01:45:48.906Z,18.40
2022-09-20T01:48:19.134Z,18.40
2022-09-20T01:50:52.440Z,18.40
2022-09-20T01:53:38.310Z,18.40
2022-09-20T01:56:17.646Z,18.40
2022-09-20T01:59:22.185Z,18.40
2022-09-20T02:02:01.072Z,18.40
2022-09-20T02:04:28.069Z,18.40
2022-09-20T02:07:03.763Z,18.40
2022-09-20T02:09:30.970Z,18.40
2022-09-20T02:12:10.475Z,18.30
2022-09-20T02:14:43.699Z,18.20
2022-09-20T02:17:13.775Z,18.20
2022-09-20T02:19:53.715Z,18.10
2022-09-20T02:22:32.823Z,18.00
2022-09-20T02:25:05.853Z,17.90
2022-09-20T02:27:53.327Z,17.90
2022-09-20T02:30:29.540Z,17.80
2022-09-20T02:33:14.778Z,17.80
2022-09-20T02:35:49.750Z,17.70
2022-09-20T02:38:22.686Z,17.70
2022-09-20T02:41:01.965Z,17.70
2022-09-20T02:43:35.071Z,17.60
2022-09-20T02:46:02.114Z,17.60
2022-09-20T02:48:49.733Z,17.60
2022-09-20T02:51:19.475Z,17.60
2022-09-20T02:54:03.398Z,17.50
2022-09-20T02:56:49.073Z,17.50
2022-09-20T02:59:28.123Z,17.50
2022-09-20T03:02:06.153Z,17.50
2022-09-20T03:04:37.767Z,17.50
2022-09-20T03:07:10.415Z,17.50
2022-09-20T03:09:53.075Z,17.50
2022-09-20T03:12:20.071Z,17.40
2022-09-20T03:15:07.327Z,17.40
2022-09-20T03:17:44.421Z,17.40
2022-09-20T03:20:25.078Z,17.50
2022-09-20T03:22:52.126Z,17.60
2022-09-20T03:25:30.571Z,17.50
2022-09-20T03:28:05.291Z,17.50
2022-09-20T03:30:51.438Z,17.50
2022-09-20T03:33:26.762Z,17.50
2022-09-20T03:36:00.375Z,17.50
2022-09-20T03:38:45.426Z,17.50
2022-09-20T03:41:31.340Z,17.50
2022-09-20T03:44:10.735Z,17.60
2022-09-20T03:46:45.731Z,17.60
2022-09-20T03:49:15.940Z,17.50
2022-09-20T03:51:52.250Z,17.50
2022-09-20T03:54:38.043Z,17.50
2022-09-20T03:57:25.643Z,17.50
2022-09-20T04:00:14.937Z,17.50
2022-09-20T04:03:03.141Z,17.50
2022-09-20T04:05:52.763Z,17.40
2022-09-20T04:08:25.693Z,17.40
2022-09-20T04:10:53.076Z,17.30
2022-09-20T04:13:35.755Z,17.40
2022-09-20T04:16:06.660Z,17.40
2022-09-20T04:18:52.309Z,17.30
2022-09-20T04:21:26.458Z,17.30
2022-09-20T04:24:00.775Z,17.50
2022-09-20T04:26:28.852Z,17.80
2022-09-20T04:29:02.916Z,18.00
2022-09-20T04:31:41.489Z,18.20
2022-09-20T04:34:48.848Z,18.40
2022-09-20T04:37:22.860Z,18.30
2022-09-20T04:39:57.140Z,17.90
2022-09-20T04:42:24.937Z,17.70
2022-09-20T04:45:03.352Z,17.40
2022-09-20T04:47:43.081Z,17.10
2022-09-20T04:50:22.880Z,17.00
2022-09-20T04:53:04.114Z,16.80
2022-09-20T04:55:35.364Z,16.80
2022-09-20T04:58:04.667Z,16.70
2022-09-20T05:00:50.820Z,16.70
2022-09-20T05:03:19.863Z,16.70
2022-09-20T05:06:04.810Z,16.70
2022-09-20T05:08:40.582Z,16.70
2022-09-20T05:11:30.349Z,16.70
2022-09-20T05:13:57.730Z,16.60
2022-09-20T05:16:55.416Z,16.60
2022-09-20T05:19:33.686Z,16.60
2022-09-20T05:22:19.836Z,16.60
2022-09-20T05:24:46.925Z,16.40
2022-09-20T05:27:20.080Z,16.40
2022-09-20T05:30:11.235Z,16.50
2022-09-20T05:32:38.703Z,16.50
2022-09-20T05:35:24.571Z,16.60
2022-09-20T05:38:05.379Z,16.70
2022-09-20T05:40:49.126Z,16.70
2022-09-20T05:43:26.330Z,16.70
2022-09-20T05:46:10.573Z,16.60
2022-09-20T05:48:54.870Z,16.70
2022-09-20T05:51:41.322Z,16.70
2022-09-20T05:54:23.352Z,16.70
2022-09-20T05:56:53.638Z,16.90
2022-09-20T05:59:20.665Z,17.40
2022-09-20T06:02:07.097Z,17.80
2022-09-20T06:04:53.136Z,18.20
2022-09-20T06:07:29.968Z,18.40
2022-09-20T06:10:13.689Z,18.80
2022-09-20T06:12:55.800Z,19.00
2022-09-20T06:15:29.197Z,19.30
2022-09-20T06:17:59.855Z,19.60
2022-09-20T06:20:36.966Z,19.80
2022-09-20T06:23:05.443Z,20.00
2022-09-20T06:26:01.885Z,20.30
2022-09-20T06:28:39.661Z,20.70
2022-09-20T06:31:09.088Z,21.00
2022-09-20T06:33:50.241Z,21.40
2022-09-20T06:36:39.574Z,21.60
2022-09-20T06:39:31.442Z,21.80
2022-09-20T06:42:16.157Z,21.60
2022-09-20T06:44:43.399Z,21.20
2022-09-20T06:47:10.929Z,21.40
2022-09-20T06:53:16.656Z,21.40
2022-09-20T06:55:45.069Z,21.40
2022-09-20T06:58:14.645Z,21.80
2022-09-20T07:00:41.830Z,22.10
2022-09-20T07:03:12.999Z,22.50
2022-09-20T07:05:58.818Z,22.50
2022-09-20T07:08:26.497Z,22.30
2022-09-20T07:11:22.896Z,22.30
2022-09-20T07:13:54.728Z,22.50
2022-09-20T07:16:23.525Z,22.90
2022-09-20T07:18:52.878Z,23.40
2022-09-20T07:21:26.945Z,23.70
2022-09-20T07:24:24.621Z,23.90
2022-09-20T07:34:22.886Z,24.40
2022-09-20T07:40:38.534Z,24.80
2022-09-20T07:43:07.997Z,24.90
2022-09-20T07:45:40.200Z,24.80
2022-09-20T07:48:10.326Z,24.70
2022-09-20T07:50:37.432Z,24.80
2022-09-20T07:56:53.793Z,24.70
2022-09-20T08:00:00.678Z,24.70
2022-09-20T08:05:51.391Z,24.30
2022-09-20T08:08:18.608Z,23.80
2022-09-20T08:11:08.170Z,23.70
2022-09-20T08:21:09.316Z,24.10
2022-09-20T08:23:37.100Z,23.80
2022-09-20T08:26:07.732Z,23.60
2022-09-20T08:28:44.440Z,23.60
2022-09-20T08:32:01.803Z,23.60
2022-09-20T08:34:55.262Z,23.40
2022-09-20T08:41:03.999Z,23.10
2022-09-20T08:43:37.100Z,23.30
2022-09-20T08:46:46.090Z,23.60
2022-09-20T08:49:31.733Z,23.60
2022-09-20T08:52:10.545Z,23.90
2022-09-20T08:54:50.355Z,24.30
2022-09-20T08:57:32.460Z,24.70
2022-09-20T09:03:27.981Z,25.30
2022-09-20T09:06:10.329Z,25.60
2022-09-20T09:08:44.723Z,25.80
2022-09-20T09:11:18.966Z,26.00
2022-09-20T09:14:35.838Z,26.00
2022-09-20T09:17:03.053Z,26.10
2022-09-20T09:20:09.790Z,25.70
2022-09-20T09:25:36.582Z,25.00
2022-09-20T09:28:07.182Z,25.00
2022-09-20T09:30:34.390Z,24.80
2022-09-20T09:40:38.818Z,24.10
2022-09-20T09:53:28.493Z,23.80
2022-09-20T09:55:56.788Z,23.80
2022-09-20T09:59:13.029Z,23.60
2022-09-20T10:01:49.498Z,23.80
2022-09-20T10:04:35.458Z,24.00
2022-09-20T10:07:27.692Z,24.10
2022-09-20T10:09:59.032Z,24.30
2022-09-20T10:12:38.023Z,24.70
2022-09-20T10:18:39.637Z,24.30
2022-09-20T10:24:40.125Z,24.60
2022-09-20T10:27:29.141Z,24.70
2022-09-20T10:30:02.768Z,24.70
2022-09-20T10:32:50.031Z,24.40
2022-09-20T10:35:29.630Z,24.10
2022-09-20T10:37:59.995Z,23.90
2022-09-20T10:40:57.930Z,23.60
2022-09-20T10:43:42.003Z,23.60
2022-09-20T10:46:39.077Z,23.90
2022-09-20T10:49:24.938Z,23.90
2022-09-20T10:52:00.675Z,23.90
2022-09-20T10:54:44.420Z,23.90
2022-09-20T10:57:57.216Z,23.80
2022-09-20T11:00:42.965Z,23.50
2022-09-20T11:03:26.751Z,23.30
2022-09-20T11:06:17.466Z,23.60
2022-09-20T11:08:46.085Z,23.60
2022-09-20T11:11:18.467Z,23.30
2022-09-20T11:13:58.325Z,23.30
2022-09-20T11:16:28.836Z,23.20
2022-09-20T11:19:01.846Z,23.00
2022-09-20T11:21:33.778Z,23.10
2022-09-20T11:24:27.486Z,23.20
2022-09-20T11:27:19.583Z,23.20
2022-09-20T11:30:31.741Z,23.20
2022-09-20T11:33:07.398Z,23.20
2022-09-20T11:35:45.877Z,23.20
2022-09-20T11:38:13.399Z,23.30
2022-09-20T11:40:53.583Z,23.40
2022-09-20T11:43:21.146Z,23.50
2022-09-20T11:45:50.946Z,23.60
2022-09-20T11:48:22.171Z,23.60
2022-09-20T11:50:49.207Z,23.70
2022-09-20T11:53:37.057Z,23.80
2022-09-20T11:56:24.195Z,23.70
2022-09-20T11:58:58.966Z,23.90
2022-09-20T12:01:36.162Z,24.00
2022-09-20T12:04:31.903Z,24.10
2022-09-20T12:07:17.949Z,23.80
2022-09-20T12:09:52.185Z,23.30
2022-09-20T12:12:31.406Z,23.00
2022-09-20T12:14:59.562Z,23.00
2022-09-20T12:17:45.363Z,22.90
2022-09-20T12:20:31.236Z,22.80
2022-09-20T12:23:21.254Z,22.80
2022-09-20T12:26:05.043Z,22.80
2022-09-20T12:28:34.090Z,23.00
2022-09-20T12:31:23.043Z,23.00
2022-09-20T12:34:15.534Z,23.10
2022-09-20T12:36:46.620Z,23.40
2022-09-20T12:39:22.449Z,23.50
2022-09-20T12:41:54.734Z,23.60
2022-09-20T12:44:22.365Z,23.90
2022-09-20T12:46:54.115Z,24.00
2022-09-20T12:49:41.175Z,24.00
2022-09-20T12:52:48.963Z,24.20
2022-09-20T12:55:36.659Z,24.30
2022-09-20T12:58:09.668Z,23.90
2022-09-20T13:00:57.917Z,23.60
2022-09-20T13:03:31.701Z,23.60
2022-09-20T13:06:05.901Z,23.70
2022-09-20T13:08:39.842Z,23.60
2022-09-20T13:11:12.033Z,23.50
2022-09-20T13:13:58.227Z,23.30
2022-09-20T13:16:37.698Z,23.20
2022-09-20T13:19:12.406Z,22.90
2022-09-20T13:22:08.546Z,22.80
2022-09-20T13:24:57.256Z,22.90
2022-09-20T13:27:28.410Z,22.90
2022-09-20T13:30:08.732Z,23.10
2022-09-20T13:36:09.386Z,23.10
2022-09-20T13:38:38.545Z,23.00
2022-09-20T13:41:32.626Z,23.00
2022-09-20T13:44:01.565Z,23.10
2022-09-20T13:46:37.990Z,23.20
2022-09-20T13:49:40.585Z,23.20
2022-09-20T13:52:29.351Z,23.40
2022-09-20T13:58:54.388Z,23.80
2022-09-20T14:01:30.063Z,23.90
2022-09-20T14:04:03.645Z,23.90
2022-09-20T14:06:32.087Z,23.90
2022-09-20T14:09:01.373Z,24.00
2022-09-20T14:12:00.153Z,24.00
2022-09-20T14:14:28.883Z,24.00
2022-09-20T14:17:20.286Z,23.90
2022-09-20T14:19:52.091Z,24.00
2022-09-20T14:22:21.579Z,24.00
2022-09-20T14:25:33.345Z,24.10
2022-09-20T14:28:12.986Z,24.00
2022-09-20T14:30:44.148Z,24.00
2022-09-20T14:33:15.041Z,23.70
2022-09-20T14:36:02.397Z,23.50
2022-09-20T14:38:32.928Z,23.20
2022-09-20T14:41:02.455Z,23.00
2022-09-20T14:43:34.155Z,23.00
2022-09-20T14:46:05.916Z,23.00
2022-09-20T14:48:34.999Z,23.20
2022-09-20T14:51:22.202Z,23.20
2022-09-20T14:53:50.667Z,23.30
2022-09-20T14:56:42.062Z,23.30
2022-09-20T14:59:09.158Z,23.30
2022-09-20T15:01:44.972Z,23.40
2022-09-20T15:04:21.049Z,23.40
2022-09-20T15:06:48.985Z,23.40
2022-09-20T15:09:18.485Z,23.50
2022-09-20T15:11:47.797Z,23.50
2022-09-20T15:14:14.997Z,23.50
2022-09-20T15:16:42.089Z,23.40
2022-09-20T15:19:10.356Z,23.40
2022-09-20T15:21:37.357Z,23.30
2022-09-20T15:24:04.520Z,23.20
2022-09-20T15:26:32.787Z,23.00
2022-09-20T15:29:00.920Z,22.80
2022-09-20T15:31:28.703Z,22.70
2022-09-20T15:33:55.796Z,22.70
2022-09-20T15:36:22.967Z,22.60
2022-09-20T15:38:53.152Z,22.60
2022-09-20T15:41:21.443Z,22.50
2022-09-20T15:43:50.295Z,22.60
2022-09-20T15:46:21.948Z,22.70
2022-09-20T15:48:49.078Z,22.80
2022-09-20T15:51:16.458Z,22.90
2022-09-20T15:53:45.339Z,22.80
2022-09-20T15:56:21.256Z,22.80
2022-09-20T15:58:50.381Z,22.80
2022-09-20T16:01:20.071Z,22.70
2022-09-20T16:03:49.610Z,22.80
2022-09-20T16:06:16.742Z,22.80
2022-09-20T16:08:43.778Z,22.80
2022-09-20T16:11:13.269Z,22.80
2022-09-20T16:13:42.946Z,22.80
2022-09-20T16:16:12.932Z,22.70
2022-09-20T16:18:58.531Z,22.70
2022-09-20T16:21:31.931Z,22.70
2022-09-20T16:24:01.298Z,22.60
2022-09-20T16:26:29.417Z,22.60
2022-09-20T16:28:57.852Z,22.50
2022-09-20T16:31:41.846Z,22.50
2022-09-20T16:34:20.332Z,22.50
2022-09-20T16:36:51.402Z,22.40
2022-09-20T16:39:19.323Z,22.40
2022-09-20T16:41:47.846Z,22.40
2022-09-20T16:44:21.170Z,22.30
2022-09-20T16:46:48.360Z,22.20
2022-09-20T16:49:16.719Z,22.20
2022-09-20T16:51:44.868Z,22.20
2022-09-20T16:54:13.204Z,22.10
2022-09-20T16:56:41.546Z,22.20
2022-09-20T16:59:12.500Z,22.10
2022-09-20T17:02:05.198Z,22.10
2022-09-20T17:05:19.408Z,22.00
2022-09-20T17:08:11.417Z,21.90
2022-09-20T17:10:39.644Z,21.90
2022-09-20T17:13:07.429Z,21.90
2022-09-20T17:15:41.983Z,21.80
2022-09-20T17:18:14.893Z,21.80
2022-09-20T17:20:43.944Z,21.80
2022-09-20T17:23:13.555Z,21.80
2022-09-20T17:25:42.860Z,21.70
2022-09-20T17:28:21.520Z,21.70
2022-09-20T17:30:48.644Z,21.70
2022-09-20T17:33:15.901Z,21.60
2022-09-20T17:35:50.536Z,21.60
2022-09-20T17:38:17.634Z,21.60
2022-09-20T17:40:44.732Z,21.50
2022-09-20T17:43:11.830Z,21.50
2022-09-20T17:45:51.938Z,21.40
2022-09-20T17:48:19.187Z,21.30
2022-09-20T17:50:57.416Z,21.20
2022-09-20T17:53:24.539Z,21.10
2022-09-20T17:55:58.373Z,21.00
2022-09-20T17:58:25.954Z,20.90
2022-09-20T18:01:18.454Z,20.90
2022-09-20T18:03:46.962Z,20.80
2022-09-20T18:06:17.230Z,20.70
2022-09-20T18:08:54.303Z,20.70
2022-09-20T18:11:22.576Z,20.60
2022-09-20T18:13:49.678Z,20.50
2022-09-20T18:16:18.194Z,20.50
2022-09-20T18:18:46.394Z,20.40
2022-09-20T18:21:19.932Z,20.50
2022-09-20T18:23:47.680Z,20.40
2022-09-20T18:26:21.827Z,20.40
2022-09-20T18:28:55.071Z,20.40
2022-09-20T18:31:25.670Z,20.40
2022-09-20T18:33:53.556Z,20.30
2022-09-20T18:36:27.543Z,20.30
2022-09-20T18:38:57.609Z,20.30
2022-09-20T18:41:26.115Z,20.30
2022-09-20T18:44:38.597Z,20.20
2022-09-20T18:47:16.179Z,20.20
2022-09-20T18:50:25.639Z,20.20
2022-09-20T18:52:54.421Z,20.20
2022-09-20T18:55:24.441Z,20.20
2022-09-20T18:57:51.712Z,20.20
2022-09-20T19:00:21.305Z,20.20
2022-09-20T19:02:55.257Z,20.20
2022-09-20T19:05:28.152Z,20.20
2022-09-20T19:08:16.957Z,20.20
2022-09-20T19:10:52.659Z,20.20
2022-09-20T19:13:42.640Z,20.20
2022-09-20T19:16:18.468Z,20.20
2022-09-20T19:18:45.723Z,20.00
2022-09-20T19:21:23.878Z,19.90
2022-09-20T19:24:07.258Z,19.90
2022-09-20T19:26:38.531Z,19.90
2022-09-20T19:32:27.574Z,19.80
2022-09-20T19:34:55.886Z,19.80
2022-09-20T19:41:04.746Z,19.70
2022-09-20T19:43:45.204Z,19.70
2022-09-20T19:49:16.363Z,19.70
2022-09-20T19:51:44.196Z,19.60
2022-09-20T19:54:12.522Z,19.60
2022-09-20T19:57:28.751Z,19.60
2022-09-20T20:00:20.122Z,19.50
2022-09-20T20:02:47.813Z,19.50
2022-09-20T20:05:28.555Z,19.50
2022-09-20T20:07:58.704Z,19.40
2022-09-20T20:11:01.873Z,19.40
2022-09-20T20:13:57.669Z,19.40
2022-09-20T20:19:23.189Z,19.40
2022-09-20T20:21:51.267Z,19.40
2022-09-20T20:24:37.186Z,19.40
2022-09-20T20:27:06.326Z,19.40
2022-09-20T20:29:33.678Z,19.40
2022-09-20T20:32:00.763Z,19.40
2022-09-20T20:34:27.977Z,19.30
2022-09-20T20:37:05.469Z,19.30
2022-09-20T20:39:33.144Z,19.30
2022-09-20T20:48:57.012Z,19.10
2022-09-20T20:51:25.004Z,19.10
2022-09-20T20:53:53.092Z,19.10
2022-09-20T20:56:30.003Z,19.10
2022-09-20T20:59:25.993Z,19.10
2022-09-20T21:01:53.308Z,19.10
2022-09-20T21:04:49.303Z,19.10
2022-09-20T21:07:19.205Z,19.10
2022-09-20T21:09:46.832Z,19.00
2022-09-20T21:15:45.436Z,19.00
2022-09-20T21:18:14.136Z,19.00
2022-09-20T21:20:42.548Z,19.10
2022-09-20T21:27:39.067Z,19.00
2022-09-20T21:30:09.181Z,19.00
2022-09-20T21:32:39.107Z,19.00
2022-09-20T21:35:06.452Z,18.90
2022-09-20T21:37:33.765Z,18.90
2022-09-20T21:40:00.973Z,18.90
2022-09-20T21:42:28.750Z,18.90
2022-09-20T21:44:59.355Z,18.80
2022-09-20T21:47:26.697Z,18.70
2022-09-20T21:49:57.605Z,18.70
2022-09-20T21:52:27.036Z,18.60
2022-09-20T21:54:54.206Z,18.60
2022-09-20T21:57:45.969Z,18.60
2022-09-20T22:00:13.629Z,18.60
2022-09-20T22:02:43.866Z,18.60
2022-09-20T22:05:16.177Z,18.60
2022-09-20T22:07:45.992Z,18.50
2022-09-20T22:10:13.237Z,18.50
2022-09-20T22:13:08.497Z,18.30
2022-09-20T22:15:35.667Z,18.20
2022-09-20T22:18:04.961Z,18.00
2022-09-20T22:20:57.321Z,17.90
2022-09-20T22:23:24.380Z,17.80
2022-09-20T22:29:26.960Z,17.80
2022-09-20T22:31:54.049Z,17.80
2022-09-20T22:34:24.108Z,17.80
2022-09-20T22:36:52.104Z,17.80
2022-09-20T22:39:19.168Z,17.70
2022-09-20T22:41:47.859Z,17.80
2022-09-20T22:44:15.327Z,17.80
2022-09-20T22:46:42.864Z,17.80
2022-09-20T22:49:10.294Z,17.80
2022-09-20T22:51:49.581Z,17.90
2022-09-20T22:54:16.655Z,18.00
2022-09-20T22:56:43.710Z,18.00
2022-09-20T22:59:12.052Z,18.10
2022-09-20T23:01:43.639Z,18.10
2022-09-20T23:04:11.906Z,18.20
2022-09-20T23:06:51.771Z,18.20
2022-09-20T23:09:18.968Z,18.20
2022-09-20T23:11:46.443Z,18.20
2022-09-20T23:14:16.896Z,18.30
2022-09-20T23:16:44.530Z,18.40
2022-09-20T23:19:12.096Z,18.30
2022-09-20T23:21:40.041Z,18.30
2022-09-20T23:24:08.231Z,18.30
2022-09-20T23:26:36.209Z,18.30
2022-09-20T23:29:03.214Z,18.40
2022-09-20T23:31:31.842Z,18.40
2022-09-20T23:33:59.810Z,18.40
2022-09-20T23:36:28.555Z,18.40
2022-09-20T23:38:56.953Z,18.50
2022-09-20T23:41:25.361Z,18.50
2022-09-20T23:43:52.783Z,18.50
2022-09-20T23:46:32.371Z,18.50
2022-09-20T23:48:59.494Z,18.50
2022-09-20T23:51:35.970Z,18.40
2022-09-20T23:54:03.503Z,18.50
2022-09-20T23:56:33.305Z,18.40
2022-09-20T23:59:00.619Z,18.30
